sensor_id;sensor_type;location;lat;lon;timestamp;temperature;humidity
11474;DHT22;5793;52.238;13.438;2023-08-20T00:01:26;22.50;99.90
11474;DHT22;5793;52.238;13.438;2023-08-20T00:03:55;22.60;99.90
11474;DHT22;5793;52.238;13.438;2023-08-20T00:06:24;22.60;99.90
11474;DHT22;5793;52.238;13.438;2023-08-20T00:08:52;22.70;99.90
11474;DHT22;5793;52.238;13.438;2023-08-20T00:11:20;22.70;99.90
11474;DHT22;5793;52.238;13.438;2023-08-20T00:13:48;22.70;99.90
11474;DHT22;5793;52.238;13.438;2023-08-20T00:16:16;22.70;99.90
11474;DHT22;5793;52.238;13.438;2023-08-20T00:18:46;22.70;99.90
11474;DHT22;5793;52.238;13.438;2023-08-20T00:21:14;22.80;99.90
11474;DHT22;5793;52.238;13.438;2023-08-20T00:23:42;22.80;99.90
11474;DHT22;5793;52.238;13.438;2023-08-20T00:26:10;22.80;99.90
11474;DHT22;5793;52.238;13.438;2023-08-20T00:28:38;22.90;99.90
11474;DHT22;5793;52.238;13.438;2023-08-20T00:31:06;23.00;99.90
11474;DHT22;5793;52.238;13.438;2023-08-20T00:33:34;23.00;99.90
11474;DHT22;5793;52.238;13.438;2023-08-20T00:36:04;23.10;99.90
11474;DHT22;5793;52.238;13.438;2023-08-20T00:38:31;23.10;99.90
11474;DHT22;5793;52.238;13.438;2023-08-20T00:40:59;23.10;99.90
11474;DHT22;5793;52.238;13.438;2023-08-20T00:43:27;23.00;99.90
11474;DHT22;5793;52.238;13.438;2023-08-20T00:45:55;22.90;99.90
11474;DHT22;5793;52.238;13.438;2023-08-20T00:48:24;22.70;99.90
11474;DHT22;5793;52.238;13.438;2023-08-20T00:50:52;22.50;99.90
11474;DHT22;5793;52.238;13.438;2023-08-20T00:53:21;22.50;99.90
11474;DHT22;5793;52.238;13.438;2023-08-20T00:55:50;22.40;99.90
11474;DHT22;5793;52.238;13.438;2023-08-20T00:58:18;22.40;99.90
11474;DHT22;5793;52.238;13.438;2023-08-20T01:00:46;22.40;99.90
11474;DHT22;5793;52.238;13.438;2023-08-20T01:03:14;22.30;99.90
11474;DHT22;5793;52.238;13.438;2023-08-20T01:05:50;22.30;99.90
11474;DHT22;5793;52.238;13.438;2023-08-20T01:08:26;22.30;99.90
11474;DHT22;5793;52.238;13.438;2023-08-20T01:10:59;22.20;99.90
11474;DHT22;5793;52.238;13.438;2023-08-20T01:13:28;22.30;99.90
11474;DHT22;5793;52.238;13.438;2023-08-20T01:15:56;22.30;99.90
11474;DHT22;5793;52.238;13.438;2023-08-20T01:18:25;22.30;99.90
11474;DHT22;5793;52.238;13.438;2023-08-20T01:20:57;22.30;99.90
11474;DHT22;5793;52.238;13.438;2023-08-20T01:23:52;22.30;99.90
11474;DHT22;5793;52.238;13.438;2023-08-20T01:26:35;22.30;99.90
11474;DHT22;5793;52.238;13.438;2023-08-20T01:29:09;22.30;99.90
11474;DHT22;5793;52.238;13.438;2023-08-20T01:31:38;22.30;99.90
11474;DHT22;5793;52.238;13.438;2023-08-20T01:34:07;22.40;99.90
11474;DHT22;5793;52.238;13.438;2023-08-20T01:36:35;22.40;99.90
11474;DHT22;5793;52.238;13.438;2023-08-20T01:39:03;22.50;99.90
11474;DHT22;5793;52.238;13.438;2023-08-20T01:41:32;22.50;99.90
11474;DHT22;5793;52.238;13.438;2023-08-20T01:43:59;22.60;99.90
11474;DHT22;5793;52.238;13.438;2023-08-20T01:46:29;22.70;99.90
11474;DHT22;5793;52.238;13.438;2023-08-20T01:48:57;22.80;99.90
11474;DHT22;5793;52.238;13.438;2023-08-20T01:51:25;22.80;99.90
11474;DHT22;5793;52.238;13.438;2023-08-20T01:53:53;22.90;99.90
11474;DHT22;5793;52.238;13.438;2023-08-20T01:56:20;22.90;99.90
11474;DHT22;5793;52.238;13.438;2023-08-20T01:58:48;22.80;99.90
11474;DHT22;5793;52.238;13.438;2023-08-20T02:01:16;22.90;99.90
11474;DHT22;5793;52.238;13.438;2023-08-20T02:03:45;22.80;99.90
11474;DHT22;5793;52.238;13.438;2023-08-20T02:06:13;22.80;99.90
11474;DHT22;5793;52.238;13.438;2023-08-20T02:08:41;22.80;99.90
11474;DHT22;5793;52.238;13.438;2023-08-20T02:11:08;22.80;99.90
11474;DHT22;5793;52.238;13.438;2023-08-20T02:13:36;22.70;99.90
11474;DHT22;5793;52.238;13.438;2023-08-20T02:16:05;22.70;99.90
11474;DHT22;5793;52.238;13.438;2023-08-20T02:18:33;22.70;99.90
11474;DHT22;5793;52.238;13.438;2023-08-20T02:21:02;22.70;99.90
11474;DHT22;5793;52.238;13.438;2023-08-20T02:23:30;22.70;99.90
11474;DHT22;5793;52.238;13.438;2023-08-20T02:25:58;22.70;99.90
11474;DHT22;5793;52.238;13.438;2023-08-20T02:28:27;22.60;99.90
11474;DHT22;5793;52.238;13.438;2023-08-20T02:30:54;22.70;99.90
11474;DHT22;5793;52.238;13.438;2023-08-20T02:33:24;22.70;99.90
11474;DHT22;5793;52.238;13.438;2023-08-20T02:35:52;22.70;99.90
11474;DHT22;5793;52.238;13.438;2023-08-20T02:38:21;22.80;99.90
11474;DHT22;5793;52.238;13.438;2023-08-20T02:40:49;22.80;99.90
11474;DHT22;5793;52.238;13.438;2023-08-20T02:43:17;22.80;99.90
11474;DHT22;5793;52.238;13.438;2023-08-20T02:45:45;22.80;99.90
11474;DHT22;5793;52.238;13.438;2023-08-20T02:48:15;22.70;99.90
11474;DHT22;5793;52.238;13.438;2023-08-20T02:50:43;22.70;99.90
11474;DHT22;5793;52.238;13.438;2023-08-20T02:53:11;22.70;99.90
11474;DHT22;5793;52.238;13.438;2023-08-20T02:55:40;22.70;99.90
11474;DHT22;5793;52.238;13.438;2023-08-20T02:58:09;22.70;99.90
11474;DHT22;5793;52.238;13.438;2023-08-20T03:00:36;22.60;99.90
11474;DHT22;5793;52.238;13.438;2023-08-20T03:03:05;22.60;99.90
11474;DHT22;5793;52.238;13.438;2023-08-20T03:05:35;22.70;99.90
11474;DHT22;5793;52.238;13.438;2023-08-20T03:08:03;22.70;99.90
11474;DHT22;5793;52.238;13.438;2023-08-20T03:10:31;22.60;99.90
11474;DHT22;5793;52.238;13.438;2023-08-20T03:13:02;22.50;99.90
11474;DHT22;5793;52.238;13.438;2023-08-20T03:15:30;22.50;99.90
11474;DHT22;5793;52.238;13.438;2023-08-20T03:17:58;22.50;99.90
11474;DHT22;5793;52.238;13.438;2023-08-20T03:20:26;22.60;99.90
11474;DHT22;5793;52.238;13.438;2023-08-20T03:22:54;22.60;99.90
11474;DHT22;5793;52.238;13.438;2023-08-20T03:25:22;22.50;99.90
11474;DHT22;5793;52.238;13.438;2023-08-20T03:27:51;22.50;99.90
11474;DHT22;5793;52.238;13.438;2023-08-20T03:30:20;22.50;99.90
11474;DHT22;5793;52.238;13.438;2023-08-20T03:32:48;22.50;99.90
11474;DHT22;5793;52.238;13.438;2023-08-20T03:35:16;22.60;99.90
11474;DHT22;5793;52.238;13.438;2023-08-20T03:37:44;22.60;99.90
11474;DHT22;5793;52.238;13.438;2023-08-20T03:40:12;22.60;99.90
11474;DHT22;5793;52.238;13.438;2023-08-20T03:42:40;22.60;99.90
11474;DHT22;5793;52.238;13.438;2023-08-20T03:45:08;22.60;99.90
11474;DHT22;5793;52.238;13.438;2023-08-20T03:47:37;22.60;99.90
11474;DHT22;5793;52.238;13.438;2023-08-20T03:50:05;22.60;99.90
11474;DHT22;5793;52.238;13.438;2023-08-20T03:52:34;22.60;99.90
11474;DHT22;5793;52.238;13.438;2023-08-20T03:55:02;22.60;99.90
11474;DHT22;5793;52.238;13.438;2023-08-20T03:57:30;22.60;99.90
11474;DHT22;5793;52.238;13.438;2023-08-20T03:59:58;22.50;99.90
11474;DHT22;5793;52.238;13.438;2023-08-20T04:02:26;22.50;99.90
11474;DHT22;5793;52.238;13.438;2023-08-20T04:04:57;22.50;99.90
11474;DHT22;5793;52.238;13.438;2023-08-20T04:07:25;22.50;99.90
11474;DHT22;5793;52.238;13.438;2023-08-20T04:09:53;22.40;99.90
11474;DHT22;5793;52.238;13.438;2023-08-20T04:12:21;22.50;99.90
11474;DHT22;5793;52.238;13.438;2023-08-20T04:14:48;22.40;99.90
11474;DHT22;5793;52.238;13.438;2023-08-20T04:17:16;22.40;99.90
11474;DHT22;5793;52.238;13.438;2023-08-20T04:19:44;22.40;99.90
11474;DHT22;5793;52.238;13.438;2023-08-20T04:22:14;22.30;99.90
11474;DHT22;5793;52.238;13.438;2023-08-20T04:24:42;22.20;99.90
11474;DHT22;5793;52.238;13.438;2023-08-20T04:27:10;22.20;99.90
11474;DHT22;5793;52.238;13.438;2023-08-20T04:29:37;22.30;99.90
11474;DHT22;5793;52.238;13.438;2023-08-20T04:32:05;22.20;99.90
11474;DHT22;5793;52.238;13.438;2023-08-20T04:34:33;22.20;99.90
11474;DHT22;5793;52.238;13.438;2023-08-20T04:37:01;22.20;99.90
11474;DHT22;5793;52.238;13.438;2023-08-20T04:39:30;22.20;99.90
11474;DHT22;5793;52.238;13.438;2023-08-20T04:41:58;22.20;99.90
11474;DHT22;5793;52.238;13.438;2023-08-20T04:44:26;22.20;99.90
11474;DHT22;5793;52.238;13.438;2023-08-20T04:46:54;22.20;99.90
11474;DHT22;5793;52.238;13.438;2023-08-20T04:49:22;22.20;99.90
11474;DHT22;5793;52.238;13.438;2023-08-20T04:51:52;22.10;99.90
11474;DHT22;5793;52.238;13.438;2023-08-20T04:54:21;22.10;99.90
11474;DHT22;5793;52.238;13.438;2023-08-20T04:56:50;22.00;99.90
11474;DHT22;5793;52.238;13.438;2023-08-20T04:59:18;22.10;99.90
11474;DHT22;5793;52.238;13.438;2023-08-20T05:01:46;22.10;99.90
11474;DHT22;5793;52.238;13.438;2023-08-20T05:04:14;22.20;99.90
11474;DHT22;5793;52.238;13.438;2023-08-20T05:06:41;22.20;99.90
11474;DHT22;5793;52.238;13.438;2023-08-20T05:09:09;22.30;99.90
11474;DHT22;5793;52.238;13.438;2023-08-20T05:11:37;22.30;99.90
11474;DHT22;5793;52.238;13.438;2023-08-20T05:14:06;22.30;99.90
11474;DHT22;5793;52.238;13.438;2023-08-20T05:16:34;22.30;99.90
11474;DHT22;5793;52.238;13.438;2023-08-20T05:19:02;22.30;99.90
11474;DHT22;5793;52.238;13.438;2023-08-20T05:21:29;22.50;99.90
11474;DHT22;5793;52.238;13.438;2023-08-20T05:23:57;22.50;99.90
11474;DHT22;5793;52.238;13.438;2023-08-20T05:26:25;22.50;99.90
11474;DHT22;5793;52.238;13.438;2023-08-20T05:28:53;22.40;99.90
11474;DHT22;5793;52.238;13.438;2023-08-20T05:31:22;22.50;99.90
11474;DHT22;5793;52.238;13.438;2023-08-20T05:33:50;22.50;99.90
11474;DHT22;5793;52.238;13.438;2023-08-20T05:36:18;22.50;99.90
11474;DHT22;5793;52.238;13.438;2023-08-20T05:38:45;22.50;99.90
11474;DHT22;5793;52.238;13.438;2023-08-20T05:41:13;22.60;99.90
11474;DHT22;5793;52.238;13.438;2023-08-20T05:43:41;22.60;99.90
11474;DHT22;5793;52.238;13.438;2023-08-20T05:46:09;22.80;99.90
11474;DHT22;5793;52.238;13.438;2023-08-20T05:48:38;22.80;99.90
11474;DHT22;5793;52.238;13.438;2023-08-20T05:51:06;22.90;99.90
11474;DHT22;5793;52.238;13.438;2023-08-20T05:53:33;22.90;99.90
11474;DHT22;5793;52.238;13.438;2023-08-20T05:56:01;23.00;99.90
11474;DHT22;5793;52.238;13.438;2023-08-20T05:58:29;23.20;99.90
11474;DHT22;5793;52.238;13.438;2023-08-20T06:00:57;23.30;99.90
11474;DHT22;5793;52.238;13.438;2023-08-20T06:03:25;23.50;99.90
11474;DHT22;5793;52.238;13.438;2023-08-20T06:05:55;23.50;99.90
11474;DHT22;5793;52.238;13.438;2023-08-20T06:08:29;23.60;99.90
11474;DHT22;5793;52.238;13.438;2023-08-20T06:10:56;23.60;99.90
11474;DHT22;5793;52.238;13.438;2023-08-20T06:13:24;23.50;99.90
11474;DHT22;5793;52.238;13.438;2023-08-20T06:15:52;23.40;99.90
11474;DHT22;5793;52.238;13.438;2023-08-20T06:18:20;23.40;99.90
11474;DHT22;5793;52.238;13.438;2023-08-20T06:20:47;23.40;99.90
11474;DHT22;5793;52.238;13.438;2023-08-20T06:23:17;23.40;99.90
11474;DHT22;5793;52.238;13.438;2023-08-20T06:26:02;23.40;99.90
11474;DHT22;5793;52.238;13.438;2023-08-20T06:28:30;23.40;99.90
11474;DHT22;5793;52.238;13.438;2023-08-20T06:30:57;23.40;99.90
11474;DHT22;5793;52.238;13.438;2023-08-20T06:33:25;23.40;99.90
11474;DHT22;5793;52.238;13.438;2023-08-20T06:35:53;23.50;99.90
11474;DHT22;5793;52.238;13.438;2023-08-20T06:38:22;23.50;99.90
11474;DHT22;5793;52.238;13.438;2023-08-20T06:40:50;23.60;99.90
11474;DHT22;5793;52.238;13.438;2023-08-20T06:43:18;23.80;99.90
11474;DHT22;5793;52.238;13.438;2023-08-20T06:45:46;24.00;99.90
11474;DHT22;5793;52.238;13.438;2023-08-20T06:48:13;24.00;99.90
11474;DHT22;5793;52.238;13.438;2023-08-20T06:50:43;24.00;99.90
11474;DHT22;5793;52.238;13.438;2023-08-20T06:53:10;23.90;99.90
11474;DHT22;5793;52.238;13.438;2023-08-20T06:55:40;23.90;99.90
11474;DHT22;5793;52.238;13.438;2023-08-20T06:58:07;23.90;99.90
11474;DHT22;5793;52.238;13.438;2023-08-20T07:00:35;24.00;99.90
11474;DHT22;5793;52.238;13.438;2023-08-20T07:03:04;24.10;99.90
11474;DHT22;5793;52.238;13.438;2023-08-20T07:05:32;24.10;99.90
11474;DHT22;5793;52.238;13.438;2023-08-20T07:08:00;24.00;99.90
11474;DHT22;5793;52.238;13.438;2023-08-20T07:10:27;23.90;99.90
11474;DHT22;5793;52.238;13.438;2023-08-20T07:12:57;23.90;99.90
11474;DHT22;5793;52.238;13.438;2023-08-20T07:15:24;23.90;99.90
11474;DHT22;5793;52.238;13.438;2023-08-20T07:17:52;24.00;99.90
11474;DHT22;5793;52.238;13.438;2023-08-20T07:20:20;23.90;99.90
11474;DHT22;5793;52.238;13.438;2023-08-20T07:22:48;23.70;99.90
11474;DHT22;5793;52.238;13.438;2023-08-20T07:25:16;23.50;99.90
11474;DHT22;5793;52.238;13.438;2023-08-20T07:27:44;23.60;99.90
11474;DHT22;5793;52.238;13.438;2023-08-20T07:30:13;23.80;99.90
11474;DHT22;5793;52.238;13.438;2023-08-20T07:32:41;24.10;99.90
11474;DHT22;5793;52.238;13.438;2023-08-20T07:35:09;24.40;99.90
11474;DHT22;5793;52.238;13.438;2023-08-20T07:37:37;24.60;99.90
11474;DHT22;5793;52.238;13.438;2023-08-20T07:40:06;24.60;99.90
11474;DHT22;5793;52.238;13.438;2023-08-20T07:42:35;24.60;99.90
11474;DHT22;5793;52.238;13.438;2023-08-20T07:45:04;24.60;99.90
11474;DHT22;5793;52.238;13.438;2023-08-20T07:47:33;24.50;99.90
11474;DHT22;5793;52.238;13.438;2023-08-20T07:50:02;24.40;99.90
11474;DHT22;5793;52.238;13.438;2023-08-20T07:52:29;24.50;99.90
11474;DHT22;5793;52.238;13.438;2023-08-20T07:54:57;24.60;99.90
11474;DHT22;5793;52.238;13.438;2023-08-20T07:57:25;24.70;99.90
11474;DHT22;5793;52.238;13.438;2023-08-20T07:59:53;24.80;99.90
11474;DHT22;5793;52.238;13.438;2023-08-20T08:02:21;24.80;99.90
11474;DHT22;5793;52.238;13.438;2023-08-20T08:04:50;24.80;99.90
11474;DHT22;5793;52.238;13.438;2023-08-20T08:07:18;24.90;99.90
11474;DHT22;5793;52.238;13.438;2023-08-20T08:09:45;24.90;99.90
11474;DHT22;5793;52.238;13.438;2023-08-20T08:12:13;25.00;99.90
11474;DHT22;5793;52.238;13.438;2023-08-20T08:14:41;25.10;99.90
11474;DHT22;5793;52.238;13.438;2023-08-20T08:17:09;25.20;99.90
11474;DHT22;5793;52.238;13.438;2023-08-20T08:19:36;25.20;99.90
11474;DHT22;5793;52.238;13.438;2023-08-20T08:22:06;25.40;99.90
11474;DHT22;5793;52.238;13.438;2023-08-20T08:24:33;25.50;99.90
11474;DHT22;5793;52.238;13.438;2023-08-20T08:27:01;25.50;99.90
11474;DHT22;5793;52.238;13.438;2023-08-20T08:29:29;25.60;99.90
11474;DHT22;5793;52.238;13.438;2023-08-20T08:31:57;25.90;99.90
11474;DHT22;5793;52.238;13.438;2023-08-20T08:34:24;26.20;99.90
11474;DHT22;5793;52.238;13.438;2023-08-20T08:36:52;26.40;99.90
11474;DHT22;5793;52.238;13.438;2023-08-20T08:39:22;26.70;99.90
11474;DHT22;5793;52.238;13.438;2023-08-20T08:41:51;27.00;99.90
11474;DHT22;5793;52.238;13.438;2023-08-20T08:44:21;27.20;99.90
11474;DHT22;5793;52.238;13.438;2023-08-20T08:46:49;27.20;99.90
11474;DHT22;5793;52.238;13.438;2023-08-20T08:49:17;27.30;99.90
11474;DHT22;5793;52.238;13.438;2023-08-20T08:51:46;27.90;99.90
11474;DHT22;5793;52.238;13.438;2023-08-20T08:54:15;28.80;99.90
11474;DHT22;5793;52.238;13.438;2023-08-20T08:56:44;29.60;99.90
11474;DHT22;5793;52.238;13.438;2023-08-20T08:59:12;30.50;99.90
11474;DHT22;5793;52.238;13.438;2023-08-20T09:01:40;31.30;99.90
11474;DHT22;5793;52.238;13.438;2023-08-20T09:04:08;32.00;99.90
11474;DHT22;5793;52.238;13.438;2023-08-20T09:06:46;31.80;99.90
11474;DHT22;5793;52.238;13.438;2023-08-20T09:09:16;31.30;99.90
11474;DHT22;5793;52.238;13.438;2023-08-20T09:11:45;30.70;99.90
11474;DHT22;5793;52.238;13.438;2023-08-20T09:14:21;33.20;99.90
11474;DHT22;5793;52.238;13.438;2023-08-20T09:16:54;35.40;99.90
11474;DHT22;5793;52.238;13.438;2023-08-20T09:19:22;36.30;99.60
11474;DHT22;5793;52.238;13.438;2023-08-20T09:21:50;35.10;99.70
11474;DHT22;5793;52.238;13.438;2023-08-20T09:24:26;33.90;99.90
11474;DHT22;5793;52.238;13.438;2023-08-20T09:26:58;33.00;99.90
11474;DHT22;5793;52.238;13.438;2023-08-20T09:29:26;32.40;99.90
11474;DHT22;5793;52.238;13.438;2023-08-20T09:32:00;33.90;99.90
11474;DHT22;5793;52.238;13.438;2023-08-20T09:34:36;34.70;99.60
11474;DHT22;5793;52.238;13.438;2023-08-20T09:37:08;35.10;99.90
11474;DHT22;5793;52.238;13.438;2023-08-20T09:39:36;36.60;97.20
11474;DHT22;5793;52.238;13.438;2023-08-20T09:42:08;35.90;98.40
11474;DHT22;5793;52.238;13.438;2023-08-20T09:44:38;34.30;99.60
11474;DHT22;5793;52.238;13.438;2023-08-20T09:47:07;35.00;99.00
11474;DHT22;5793;52.238;13.438;2023-08-20T09:49:39;34.40;99.90
11474;DHT22;5793;52.238;13.438;2023-08-20T09:52:09;33.20;99.90
11474;DHT22;5793;52.238;13.438;2023-08-20T09:54:49;33.40;99.80
11474;DHT22;5793;52.238;13.438;2023-08-20T09:57:26;34.90;99.70
11474;DHT22;5793;52.238;13.438;2023-08-20T09:59:55;37.30;96.10
11474;DHT22;5793;52.238;13.438;2023-08-20T10:02:24;38.60;93.70
11474;DHT22;5793;52.238;13.438;2023-08-20T10:04:52;37.80;91.80
11474;DHT22;5793;52.238;13.438;2023-08-20T10:07:20;36.50;93.80
11474;DHT22;5793;52.238;13.438;2023-08-20T10:09:51;36.50;92.60
11474;DHT22;5793;52.238;13.438;2023-08-20T10:12:20;37.70;90.60
11474;DHT22;5793;52.238;13.438;2023-08-20T10:14:48;38.90;90.40
11474;DHT22;5793;52.238;13.438;2023-08-20T10:17:17;40.40;84.80
11474;DHT22;5793;52.238;13.438;2023-08-20T10:19:46;41.00;82.30
11474;DHT22;5793;52.238;13.438;2023-08-20T10:22:14;41.10;76.50
11474;DHT22;5793;52.238;13.438;2023-08-20T10:24:48;41.70;75.20
11474;DHT22;5793;52.238;13.438;2023-08-20T10:27:25;41.30;74.90
11474;DHT22;5793;52.238;13.438;2023-08-20T10:29:54;41.50;74.90
11474;DHT22;5793;52.238;13.438;2023-08-20T10:32:43;41.00;71.70
11474;DHT22;5793;52.238;13.438;2023-08-20T10:35:11;40.20;73.50
11474;DHT22;5793;52.238;13.438;2023-08-20T10:38:03;40.50;74.60
11474;DHT22;5793;52.238;13.438;2023-08-20T10:40:53;40.40;72.70
11474;DHT22;5793;52.238;13.438;2023-08-20T10:43:31;40.30;73.20
11474;DHT22;5793;52.238;13.438;2023-08-20T10:46:14;39.70;74.00
11474;DHT22;5793;52.238;13.438;2023-08-20T10:48:44;39.70;75.20
11474;DHT22;5793;52.238;13.438;2023-08-20T10:51:15;39.90;73.20
11474;DHT22;5793;52.238;13.438;2023-08-20T10:53:48;39.60;73.90
11474;DHT22;5793;52.238;13.438;2023-08-20T10:56:16;39.40;70.30
11474;DHT22;5793;52.238;13.438;2023-08-20T10:58:46;39.10;71.30
11474;DHT22;5793;52.238;13.438;2023-08-20T11:01:16;39.00;73.50
11474;DHT22;5793;52.238;13.438;2023-08-20T11:03:44;38.90;73.30
11474;DHT22;5793;52.238;13.438;2023-08-20T11:06:12;38.60;72.40
11474;DHT22;5793;52.238;13.438;2023-08-20T11:08:41;38.00;72.90
11474;DHT22;5793;52.238;13.438;2023-08-20T11:11:10;37.80;75.30
11474;DHT22;5793;52.238;13.438;2023-08-20T11:13:38;37.10;76.10
11474;DHT22;5793;52.238;13.438;2023-08-20T11:16:07;36.40;78.00
11474;DHT22;5793;52.238;13.438;2023-08-20T11:18:35;36.10;77.20
11474;DHT22;5793;52.238;13.438;2023-08-20T11:21:03;35.70;80.60
11474;DHT22;5793;52.238;13.438;2023-08-20T11:23:32;35.00;82.30
11474;DHT22;5793;52.238;13.438;2023-08-20T11:26:00;35.00;82.80
11474;DHT22;5793;52.238;13.438;2023-08-20T11:28:28;34.60;83.80
11474;DHT22;5793;52.238;13.438;2023-08-20T11:30:56;34.30;85.60
11474;DHT22;5793;52.238;13.438;2023-08-20T11:33:25;34.00;84.20
11474;DHT22;5793;52.238;13.438;2023-08-20T11:35:54;33.80;84.60
11474;DHT22;5793;52.238;13.438;2023-08-20T11:38:23;33.50;86.20
11474;DHT22;5793;52.238;13.438;2023-08-20T11:40:51;33.40;87.40
11474;DHT22;5793;52.238;13.438;2023-08-20T11:43:19;33.20;82.10
11474;DHT22;5793;52.238;13.438;2023-08-20T11:45:48;32.90;87.50
11474;DHT22;5793;52.238;13.438;2023-08-20T11:48:16;32.60;88.80
11474;DHT22;5793;52.238;13.438;2023-08-20T11:50:46;32.30;89.90
11474;DHT22;5793;52.238;13.438;2023-08-20T11:53:14;32.20;87.00
11474;DHT22;5793;52.238;13.438;2023-08-20T11:55:42;32.20;88.80
11474;DHT22;5793;52.238;13.438;2023-08-20T11:58:11;32.10;89.60
11474;DHT22;5793;52.238;13.438;2023-08-20T12:00:39;31.90;89.60
11474;DHT22;5793;52.238;13.438;2023-08-20T12:03:08;32.00;89.60
11474;DHT22;5793;52.238;13.438;2023-08-20T12:05:40;32.20;88.30
11474;DHT22;5793;52.238;13.438;2023-08-20T12:08:15;32.20;91.30
11474;DHT22;5793;52.238;13.438;2023-08-20T12:10:43;32.20;91.10
11474;DHT22;5793;52.238;13.438;2023-08-20T12:13:11;32.20;89.80
11474;DHT22;5793;52.238;13.438;2023-08-20T12:15:39;32.40;89.70
11474;DHT22;5793;52.238;13.438;2023-08-20T12:18:07;32.40;90.00
11474;DHT22;5793;52.238;13.438;2023-08-20T12:20:37;32.50;90.00
11474;DHT22;5793;52.238;13.438;2023-08-20T12:23:06;32.60;91.10
11474;DHT22;5793;52.238;13.438;2023-08-20T12:25:36;32.60;89.80
11474;DHT22;5793;52.238;13.438;2023-08-20T12:28:04;32.60;89.40
11474;DHT22;5793;52.238;13.438;2023-08-20T12:30:33;32.30;85.10
11474;DHT22;5793;52.238;13.438;2023-08-20T12:33:05;32.30;89.20
11474;DHT22;5793;52.238;13.438;2023-08-20T12:35:34;32.30;88.80
11474;DHT22;5793;52.238;13.438;2023-08-20T12:38:02;32.10;87.80
11474;DHT22;5793;52.238;13.438;2023-08-20T12:40:30;32.20;90.70
11474;DHT22;5793;52.238;13.438;2023-08-20T12:43:00;32.20;87.90
11474;DHT22;5793;52.238;13.438;2023-08-20T12:45:28;32.10;88.70
11474;DHT22;5793;52.238;13.438;2023-08-20T12:47:56;32.00;90.60
11474;DHT22;5793;52.238;13.438;2023-08-20T12:50:27;31.90;90.90
11474;DHT22;5793;52.238;13.438;2023-08-20T12:52:55;31.80;89.80
11474;DHT22;5793;52.238;13.438;2023-08-20T12:55:23;31.70;90.10
11474;DHT22;5793;52.238;13.438;2023-08-20T12:57:53;31.60;91.80
11474;DHT22;5793;52.238;13.438;2023-08-20T13:00:23;31.60;92.20
11474;DHT22;5793;52.238;13.438;2023-08-20T13:02:52;31.50;90.50
11474;DHT22;5793;52.238;13.438;2023-08-20T13:05:21;31.30;91.10
11474;DHT22;5793;52.238;13.438;2023-08-20T13:07:49;31.30;92.50
11474;DHT22;5793;52.238;13.438;2023-08-20T13:10:18;31.30;91.30
11474;DHT22;5793;52.238;13.438;2023-08-20T13:12:48;31.20;92.50
11474;DHT22;5793;52.238;13.438;2023-08-20T13:15:17;30.90;90.80
11474;DHT22;5793;52.238;13.438;2023-08-20T13:17:48;30.70;93.10
11474;DHT22;5793;52.238;13.438;2023-08-20T13:20:17;30.50;91.40
11474;DHT22;5793;52.238;13.438;2023-08-20T13:22:47;30.50;92.70
11474;DHT22;5793;52.238;13.438;2023-08-20T13:25:15;30.50;93.40
11474;DHT22;5793;52.238;13.438;2023-08-20T13:27:43;30.40;91.40
11474;DHT22;5793;52.238;13.438;2023-08-20T13:30:12;30.30;91.20
11474;DHT22;5793;52.238;13.438;2023-08-20T13:32:40;30.10;92.40
11474;DHT22;5793;52.238;13.438;2023-08-20T13:35:09;30.00;91.90
11474;DHT22;5793;52.238;13.438;2023-08-20T13:37:37;29.90;93.50
11474;DHT22;5793;52.238;13.438;2023-08-20T13:40:06;29.90;93.60
11474;DHT22;5793;52.238;13.438;2023-08-20T13:42:35;29.90;93.40
11474;DHT22;5793;52.238;13.438;2023-08-20T13:45:05;29.60;93.60
11474;DHT22;5793;52.238;13.438;2023-08-20T13:47:33;29.30;93.30
11474;DHT22;5793;52.238;13.438;2023-08-20T13:50:02;29.00;93.40
11474;DHT22;5793;52.238;13.438;2023-08-20T13:52:32;28.80;94.50
11474;DHT22;5793;52.238;13.438;2023-08-20T13:55:01;28.60;94.30
11474;DHT22;5793;52.238;13.438;2023-08-20T13:57:29;28.50;95.10
11474;DHT22;5793;52.238;13.438;2023-08-20T13:59:57;28.50;95.30
11474;DHT22;5793;52.238;13.438;2023-08-20T14:02:25;28.50;94.80
11474;DHT22;5793;52.238;13.438;2023-08-20T14:04:53;28.50;94.80
11474;DHT22;5793;52.238;13.438;2023-08-20T14:07:21;28.60;95.20
11474;DHT22;5793;52.238;13.438;2023-08-20T14:09:51;28.70;95.30
11474;DHT22;5793;52.238;13.438;2023-08-20T14:12:19;28.80;94.90
11474;DHT22;5793;52.238;13.438;2023-08-20T14:14:47;29.00;95.00
11474;DHT22;5793;52.238;13.438;2023-08-20T14:17:16;29.10;92.60
11474;DHT22;5793;52.238;13.438;2023-08-20T14:19:43;29.20;92.90
11474;DHT22;5793;52.238;13.438;2023-08-20T14:22:11;29.30;93.10
11474;DHT22;5793;52.238;13.438;2023-08-20T14:24:39;29.20;94.90
11474;DHT22;5793;52.238;13.438;2023-08-20T14:27:08;29.00;94.40
11474;DHT22;5793;52.238;13.438;2023-08-20T14:29:36;29.00;94.40
11474;DHT22;5793;52.238;13.438;2023-08-20T14:32:04;29.00;94.20
11474;DHT22;5793;52.238;13.438;2023-08-20T14:34:32;28.90;95.10
11474;DHT22;5793;52.238;13.438;2023-08-20T14:37:00;29.00;94.30
11474;DHT22;5793;52.238;13.438;2023-08-20T14:39:28;28.90;94.90
11474;DHT22;5793;52.238;13.438;2023-08-20T14:41:58;28.90;94.00
11474;DHT22;5793;52.238;13.438;2023-08-20T14:44:28;28.90;94.20
11474;DHT22;5793;52.238;13.438;2023-08-20T14:46:56;28.80;93.10
11474;DHT22;5793;52.238;13.438;2023-08-20T14:49:23;28.80;93.30
11474;DHT22;5793;52.238;13.438;2023-08-20T14:51:51;28.90;94.50
11474;DHT22;5793;52.238;13.438;2023-08-20T14:54:31;28.90;94.20
11474;DHT22;5793;52.238;13.438;2023-08-20T14:56:59;28.90;94.20
11474;DHT22;5793;52.238;13.438;2023-08-20T14:59:28;28.80;95.40
11474;DHT22;5793;52.238;13.438;2023-08-20T15:02:00;28.90;95.10
11474;DHT22;5793;52.238;13.438;2023-08-20T15:04:28;28.80;96.10
11474;DHT22;5793;52.238;13.438;2023-08-20T15:06:56;28.80;93.70
11474;DHT22;5793;52.238;13.438;2023-08-20T15:09:23;28.80;94.60
11474;DHT22;5793;52.238;13.438;2023-08-20T15:11:52;28.60;95.40
11474;DHT22;5793;52.238;13.438;2023-08-20T15:14:21;28.60;95.40
11474;DHT22;5793;52.238;13.438;2023-08-20T15:16:50;28.50;95.90
11474;DHT22;5793;52.238;13.438;2023-08-20T15:19:18;28.50;96.10
11474;DHT22;5793;52.238;13.438;2023-08-20T15:21:46;28.30;95.70
11474;DHT22;5793;52.238;13.438;2023-08-20T15:24:14;28.20;97.50
11474;DHT22;5793;52.238;13.438;2023-08-20T15:26:42;28.10;97.20
11474;DHT22;5793;52.238;13.438;2023-08-20T15:29:09;28.10;97.20
11474;DHT22;5793;52.238;13.438;2023-08-20T15:31:38;28.10;97.50
11474;DHT22;5793;52.238;13.438;2023-08-20T15:34:07;28.00;97.90
11474;DHT22;5793;52.238;13.438;2023-08-20T15:36:35;27.90;98.00
11474;DHT22;5793;52.238;13.438;2023-08-20T15:39:02;28.00;98.40
11474;DHT22;5793;52.238;13.438;2023-08-20T15:41:31;28.00;99.90